Time;durP1;ratioP1;P1;durP2;ratioP2;P2;SDS_P1;SDS_P2;PMS_P1;PMS_P2;Temp;Humidity;BMP_temperature;BMP_pressure;BME280_temperature;BME280_humidity;BME280_pressure;Samples;Min_cycle;Max_cycle;Signal;HPM_P1;HPM_P2
2021/07/03 00:00:16;;;;;;;5.60;4.70;;;18.40;35.10;;;;;;10446554;28;20225;-69
2021/07/03 00:05:19;;;;;;;7.23;5.13;;;18.30;35.00;;;;;;10461718;28;20228;-69
2021/07/03 00:10:23;;;;;;;5.40;4.30;;;18.20;34.90;;;;;;10448553;28;20228;-69
2021/07/03 00:15:27;;;;;;;4.93;4.53;;;18.10;34.80;;;;;;10449488;28;20231;-69
2021/07/03 00:20:31;;;;;;;4.60;4.20;;;18.00;35.00;;;;;;10453448;28;20224;-69
2021/07/03 00:25:34;;;;;;;8.30;4.80;;;17.90;34.70;;;;;;10450165;28;20229;-69
2021/07/03 00:30:38;;;;;;;5.00;4.50;;;17.80;35.20;;;;;;10456663;28;20233;-69
2021/07/03 00:35:42;;;;;;;5.07;4.40;;;17.70;35.70;;;;;;10459575;28;20597;-69
2021/07/03 00:40:45;;;;;;;4.60;4.20;;;17.60;35.40;;;;;;10453624;28;20739;-69
2021/07/03 00:45:49;;;;;;;3.90;3.60;;;17.60;35.60;;;;;;10448166;28;20958;-69
2021/07/03 00:50:53;;;;;;;5.33;4.47;;;17.60;36.10;;;;;;10456485;28;20713;-69
2021/07/03 00:55:56;;;;;;;5.53;4.57;;;17.60;35.60;;;;;;10449385;28;20236;-69
2021/07/03 01:01:01;;;;;;;4.47;4.07;;;17.60;35.80;;;;;;10443679;28;20239;-69
2021/07/03 01:06:04;;;;;;;3.97;3.57;;;17.50;36.00;;;;;;10450370;28;20227;-69
2021/07/03 01:11:07;;;;;;;4.20;3.80;;;17.50;35.60;;;;;;10444786;28;20224;-69
2021/07/03 01:16:12;;;;;;;3.97;3.60;;;17.50;35.70;;;;;;10459876;28;20220;-69
2021/07/03 01:21:16;;;;;;;3.83;3.53;;;17.50;35.90;;;;;;10452506;28;20220;-69
2021/07/03 01:26:21;;;;;;;4.40;4.00;;;17.50;35.90;;;;;;10453052;28;20235;-68
2021/07/03 01:31:24;;;;;;;4.27;3.73;;;17.50;36.00;;;;;;10456151;28;20628;-69
2021/07/03 01:36:27;;;;;;;4.30;3.90;;;17.50;36.50;;;;;;10451884;28;20228;-69
2021/07/03 01:41:32;;;;;;;4.70;3.67;;;17.50;35.80;;;;;;10451487;28;20767;-69
2021/07/03 01:46:35;;;;;;;4.70;4.30;;;17.50;35.90;;;;;;10447192;28;20225;-69
2021/07/03 01:51:39;;;;;;;4.70;4.07;;;17.40;35.50;;;;;;10450392;28;20893;-69
2021/07/03 01:56:45;;;;;;;5.43;3.80;;;17.30;35.50;;;;;;10441318;28;20228;-68
2021/07/03 02:01:48;;;;;;;4.40;3.90;;;17.20;35.90;;;;;;10448379;28;20243;-69
2021/07/03 02:06:51;;;;;;;4.87;4.47;;;17.10;35.80;;;;;;10446945;28;20694;-69
2021/07/03 02:11:56;;;;;;;4.43;4.03;;;17.00;35.90;;;;;;10447894;28;20237;-69
2021/07/03 02:16:59;;;;;;;4.07;3.77;;;17.00;36.30;;;;;;10453858;28;20626;-70
2021/07/03 02:22:03;;;;;;;3.70;3.17;;;16.90;36.00;;;;;;10456161;28;20225;-69
2021/07/03 02:27:07;;;;;;;3.53;3.23;;;16.90;36.10;;;;;;10455130;28;20226;-68
2021/07/03 02:32:10;;;;;;;4.07;3.77;;;16.90;36.30;;;;;;10454805;28;20221;-69
2021/07/03 02:37:14;;;;;;;4.20;3.80;;;16.90;36.10;;;;;;10448568;28;20236;-69
2021/07/03 02:42:19;;;;;;;3.60;3.40;;;16.90;36.20;;;;;;10449609;28;20736;-69
2021/07/03 02:47:22;;;;;;;4.67;3.57;;;16.90;36.50;;;;;;10444106;28;20736;-68
2021/07/03 02:52:25;;;;;;;4.70;4.10;;;16.90;36.00;;;;;;10441984;28;20221;-69
2021/07/03 02:57:29;;;;;;;6.60;4.70;;;16.90;36.20;;;;;;10447068;28;20229;-69
2021/07/03 03:02:33;;;;;;;4.70;4.30;;;16.80;36.30;;;;;;10446173;28;20599;-69
2021/07/03 03:07:36;;;;;;;4.13;3.83;;;16.80;35.80;;;;;;10447600;28;20236;-69
2021/07/03 03:12:42;;;;;;;4.50;3.70;;;16.60;35.90;;;;;;10453118;28;20235;-69
2021/07/03 03:17:46;;;;;;;4.53;4.10;;;16.50;36.40;;;;;;10461769;28;20728;-69
2021/07/03 03:22:49;;;;;;;3.87;3.40;;;16.40;36.40;;;;;;10459582;28;20235;-69
2021/07/03 03:27:54;;;;;;;4.00;3.47;;;16.40;36.30;;;;;;10457316;28;20237;-69
2021/07/03 03:32:57;;;;;;;3.37;3.07;;;16.40;36.80;;;;;;10458469;28;20618;-69
2021/07/03 03:38:00;;;;;;;4.10;3.70;;;16.40;36.40;;;;;;10449720;28;20279;-68
2021/07/03 03:43:05;;;;;;;4.40;4.00;;;16.20;36.30;;;;;;10454211;28;20486;-68
2021/07/03 03:48:09;;;;;;;5.97;4.40;;;16.30;36.70;;;;;;10450795;28;20228;-69
2021/07/03 03:53:12;;;;;;;4.90;4.20;;;16.30;36.30;;;;;;10449771;28;20228;-69
2021/07/03 03:58:17;;;;;;;5.07;3.70;;;16.30;36.40;;;;;;10454487;28;20216;-69
2021/07/03 04:03:20;;;;;;;6.63;4.47;;;16.20;36.90;;;;;;10455593;28;20224;-68
2021/07/03 04:08:23;;;;;;;4.93;4.20;;;16.20;37.10;;;;;;10453285;28;20585;-68
2021/07/03 04:13:28;;;;;;;4.43;4.03;;;16.20;37.30;;;;;;10456048;28;21567;-68
2021/07/03 04:18:31;;;;;;;7.30;4.40;;;16.20;37.50;;;;;;10457020;28;20225;-69
2021/07/03 04:23:34;;;;;;;3.97;3.63;;;16.20;37.30;;;;;;10460607;28;20240;-69
2021/07/03 04:28:39;;;;;;;6.97;4.40;;;16.20;37.40;;;;;;10452032;28;20228;-69
2021/07/03 04:33:42;;;;;;;4.10;3.80;;;16.20;38.10;;;;;;10452241;28;20233;-68
2021/07/03 04:38:45;;;;;;;5.20;4.70;;;16.10;37.70;;;;;;10451827;28;20248;-69
2021/07/03 04:43:50;;;;;;;5.43;5.00;;;16.10;38.10;;;;;;10448653;28;20231;-68
2021/07/03 04:48:53;;;;;;;6.27;4.80;;;16.20;38.70;;;;;;10453488;28;20232;-69
2021/07/03 04:53:56;;;;;;;5.60;5.10;;;16.10;38.40;;;;;;10452303;28;20240;-69
2021/07/03 04:59:01;;;;;;;6.67;5.10;;;16.10;38.80;;;;;;10452863;28;20240;-69
2021/07/03 05:04:04;;;;;;;7.23;4.93;;;16.20;39.40;;;;;;10456992;28;20237;-70
2021/07/03 05:09:08;;;;;;;6.33;5.73;;;16.30;39.40;;;;;;10452721;28;20335;-69
2021/07/03 05:14:13;;;;;;;5.97;5.37;;;16.40;39.50;;;;;;10461442;28;20723;-69
2021/07/03 05:19:16;;;;;;;5.47;4.97;;;16.50;40.00;;;;;;10448394;28;20233;-69
2021/07/03 05:24:19;;;;;;;5.70;5.20;;;16.70;39.70;;;;;;10459338;28;20217;-69
2021/07/03 05:29:24;;;;;;;5.53;5.00;;;16.80;39.60;;;;;;10451938;28;20224;-69
2021/07/03 05:34:27;;;;;;;6.30;5.80;;;17.00;40.10;;;;;;10444164;28;20233;-69
2021/07/03 05:39:30;;;;;;;7.60;5.63;;;17.10;39.80;;;;;;10448365;28;20232;-69
2021/07/03 05:44:35;;;;;;;5.60;5.20;;;17.30;39.80;;;;;;10457237;28;20228;-69
2021/07/03 05:49:38;;;;;;;7.17;6.00;;;17.40;39.80;;;;;;10450777;28;20244;-69
2021/07/03 05:54:41;;;;;;;7.23;6.63;;;17.50;39.80;;;;;;10450715;28;20229;-68
2021/07/03 05:59:46;;;;;;;7.07;6.47;;;17.60;39.90;;;;;;10448484;28;20237;-69
2021/07/03 06:04:49;;;;;;;7.30;6.70;;;17.80;40.20;;;;;;10452155;28;20221;-69
2021/07/03 06:09:52;;;;;;;6.57;5.97;;;17.90;40.00;;;;;;10450836;28;20241;-69
2021/07/03 06:14:57;;;;;;;8.07;6.40;;;18.10;40.00;;;;;;10448950;28;20221;-69
2021/07/03 06:20:00;;;;;;;7.10;6.50;;;18.30;40.60;;;;;;10443525;28;20225;-69
2021/07/03 06:25:04;;;;;;;7.33;6.73;;;18.40;40.30;;;;;;10454698;28;20227;-69
2021/07/03 06:30:11;;;;;;;8.23;7.37;;;18.60;40.70;;;;;;10447235;28;20232;-69
2021/07/03 06:35:14;;;;;;;7.70;7.10;;;18.80;41.00;;;;;;10450410;28;20220;-69
2021/07/03 06:40:17;;;;;;;7.53;6.83;;;19.00;40.20;;;;;;10449174;28;20229;-68
2021/07/03 06:45:22;;;;;;;8.33;7.57;;;19.20;40.20;;;;;;10440786;28;20221;-68
2021/07/03 06:50:25;;;;;;;8.43;7.63;;;19.40;40.10;;;;;;10447576;28;20224;-68
2021/07/03 06:55:28;;;;;;;8.87;8.07;;;19.70;40.00;;;;;;10446088;28;20720;-68
2021/07/03 07:00:33;;;;;;;8.33;7.63;;;19.90;40.00;;;;;;10446698;28;20241;-68
2021/07/03 07:05:36;;;;;;;7.63;6.93;;;20.10;39.80;;;;;;10451451;28;20228;-68
2021/07/03 07:10:39;;;;;;;7.37;6.73;;;20.30;39.10;;;;;;10443463;28;20621;-68
2021/07/03 07:15:44;;;;;;;7.90;7.17;;;20.60;39.10;;;;;;10442953;28;20224;-68
2021/07/03 07:20:47;;;;;;;7.30;6.70;;;20.80;39.20;;;;;;10450812;28;20237;-69
2021/07/03 07:25:51;;;;;;;8.20;7.50;;;21.00;39.00;;;;;;10444906;28;20225;-68
2021/07/03 07:30:55;;;;;;;7.40;6.70;;;21.30;39.10;;;;;;10453142;28;20240;-69
2021/07/03 07:35:59;;;;;;;7.40;6.70;;;21.50;38.80;;;;;;10449013;28;20239;-68
2021/07/03 07:41:02;;;;;;;7.17;6.57;;;21.70;38.50;;;;;;10441343;28;20225;-70
2021/07/03 07:46:06;;;;;;;5.57;5.17;;;21.90;38.20;;;;;;10448253;28;20228;-68
2021/07/03 07:51:10;;;;;;;5.50;5.10;;;22.10;36.40;;;;;;10449855;28;20230;-68
2021/07/03 07:56:16;;;;;;;5.97;5.47;;;22.30;36.80;;;;;;10434252;28;20251;-67
2021/07/03 08:01:23;;;;;;;6.17;5.57;;;22.50;36.40;;;;;;10442089;28;20224;-68
2021/07/03 08:06:26;;;;;;;5.97;5.47;;;22.80;35.50;;;;;;10442445;28;20235;-68
2021/07/03 08:11:29;;;;;;;6.03;5.43;;;23.00;35.90;;;;;;10436586;28;20231;-67
2021/07/03 08:16:34;;;;;;;5.67;5.17;;;23.20;35.50;;;;;;10454604;28;20246;-68
2021/07/03 08:21:38;;;;;;;5.70;5.20;;;23.40;33.90;;;;;;10441353;28;20239;-68
2021/07/03 08:26:41;;;;;;;5.53;5.03;;;23.60;34.10;;;;;;10443816;28;20235;-68
2021/07/03 08:31:46;;;;;;;5.03;4.63;;;23.90;34.00;;;;;;10456635;28;20228;-70
2021/07/03 08:36:49;;;;;;;5.33;4.83;;;24.10;32.90;;;;;;10446730;28;20244;-69
2021/07/03 08:41:52;;;;;;;4.93;4.53;;;24.40;33.10;;;;;;10450770;28;20239;-66
2021/07/03 08:46:57;;;;;;;5.00;4.60;;;24.60;32.80;;;;;;10456301;28;20739;-70
2021/07/03 08:52:00;;;;;;;4.80;4.43;;;24.90;31.10;;;;;;10449664;28;20225;-67
2021/07/03 08:57:04;;;;;;;4.57;4.23;;;25.10;32.00;;;;;;10449572;28;20232;-67
2021/07/03 09:02:09;;;;;;;4.33;3.93;;;25.40;30.90;;;;;;10445405;28;20848;-67
2021/07/03 09:07:18;;;;;;;4.80;4.40;;;25.60;29.10;;;;;;10447374;28;20321;-68
2021/07/03 09:12:29;;;;;;;4.63;4.20;;;25.80;29.10;;;;;;10454312;28;20679;-68
2021/07/03 09:17:33;;;;;;;4.70;4.30;;;26.00;28.80;;;;;;10449638;28;20247;-68
2021/07/03 09:22:37;;;;;;;4.40;4.10;;;26.20;29.10;;;;;;10454241;28;20247;-67
2021/07/03 09:27:41;;;;;;;5.13;4.73;;;26.40;29.40;;;;;;10456315;28;20295;-67
2021/07/03 09:32:51;;;;;;;5.20;4.80;;;26.60;29.70;;;;;;10454696;28;20247;-68
2021/07/03 09:38:01;;;;;;;5.60;5.10;;;26.80;27.50;;;;;;10445094;28;20814;-67
2021/07/03 09:43:10;;;;;;;5.67;5.17;;;26.90;27.40;;;;;;10447143;28;20992;-68
2021/07/03 09:48:14;;;;;;;5.37;4.97;;;27.00;27.50;;;;;;10446907;28;20224;-68
2021/07/03 09:53:18;;;;;;;5.77;4.77;;;27.10;28.20;;;;;;10437105;28;20240;-68
2021/07/03 09:58:21;;;;;;;5.03;4.63;;;27.20;28.70;;;;;;10449244;28;20284;-67
2021/07/03 10:03:26;;;;;;;5.53;5.03;;;27.30;28.70;;;;;;10441589;28;20229;-68
2021/07/03 10:08:31;;;;;;;5.33;4.93;;;27.50;27.70;;;;;;10452356;28;20597;-68
2021/07/03 10:13:35;;;;;;;4.90;4.60;;;27.70;27.40;;;;;;10453559;28;20243;-68
2021/07/03 10:18:40;;;;;;;5.00;4.60;;;27.80;27.70;;;;;;10452187;28;20232;-68
2021/07/03 10:23:45;;;;;;;5.83;4.80;;;27.90;26.70;;;;;;10449964;28;20244;-68
2021/07/03 10:28:51;;;;;;;5.30;4.90;;;27.90;27.10;;;;;;10450872;28;20612;-68
2021/07/03 10:33:58;;;;;;;5.47;5.07;;;28.00;25.70;;;;;;10449467;28;20233;-68
2021/07/03 10:39:02;;;;;;;5.20;4.80;;;28.00;25.70;;;;;;10446231;28;20803;-68
2021/07/03 10:44:09;;;;;;;5.10;4.70;;;27.90;25.90;;;;;;10451577;28;20252;-68
2021/07/03 10:49:16;;;;;;;4.90;4.60;;;27.90;25.50;;;;;;10442052;28;20717;-68
2021/07/03 10:54:27;;;;;;;5.20;4.80;;;27.90;25.60;;;;;;10448318;28;20221;-68
2021/07/03 10:59:33;;;;;;;5.90;5.33;;;27.90;25.10;;;;;;10444235;28;20780;-68
2021/07/03 11:04:49;;;;;;;5.37;4.97;;;28.00;26.00;;;;;;10448451;28;20590;-68
2021/07/03 11:09:52;;;;;;;5.27;4.87;;;28.00;25.30;;;;;;10449074;28;20227;-67
2021/07/03 11:14:57;;;;;;;5.70;5.20;;;28.00;26.10;;;;;;10456743;28;20263;-69
2021/07/03 11:20:01;;;;;;;5.67;5.17;;;28.10;25.80;;;;;;10451516;28;20233;-68
2021/07/03 11:25:05;;;;;;;5.47;5.07;;;28.20;25.60;;;;;;10451130;28;20232;-68
2021/07/03 11:30:17;;;;;;;4.97;4.47;;;28.30;25.70;;;;;;10443017;28;20226;-68
2021/07/03 11:35:22;;;;;;;5.27;4.97;;;28.50;25.20;;;;;;10448992;28;20699;-68
2021/07/03 11:40:27;;;;;;;5.50;5.10;;;28.50;25.00;;;;;;10449974;28;20241;-68
2021/07/03 11:45:32;;;;;;;5.07;4.67;;;28.60;25.10;;;;;;10453945;28;20223;-68
2021/07/03 11:50:39;;;;;;;5.10;4.70;;;28.70;24.40;;;;;;10459305;28;20271;-68
2021/07/03 11:55:45;;;;;;;5.17;4.23;;;28.70;23.60;;;;;;10458463;28;20228;-68
2021/07/03 12:00:50;;;;;;;5.00;4.50;;;28.70;23.60;;;;;;10454857;28;20225;-68
2021/07/03 12:05:57;;;;;;;4.60;4.30;;;28.70;23.30;;;;;;10451025;28;20233;-68
2021/07/03 12:11:02;;;;;;;4.43;4.13;;;28.80;23.60;;;;;;10457285;28;20732;-68
2021/07/03 12:16:09;;;;;;;4.70;4.40;;;28.80;23.70;;;;;;10460174;28;20224;-68
2021/07/03 12:21:15;;;;;;;4.43;4.13;;;28.80;22.80;;;;;;10457311;28;20227;-68
2021/07/03 12:26:21;;;;;;;4.47;4.13;;;28.70;22.60;;;;;;10458673;28;20231;-67
2021/07/03 12:31:27;;;;;;;4.83;4.43;;;28.70;22.90;;;;;;10448831;28;20229;-68
2021/07/03 12:36:33;;;;;;;4.43;4.13;;;28.60;22.90;;;;;;10451875;28;20599;-68
2021/07/03 12:41:37;;;;;;;4.57;4.27;;;28.70;22.70;;;;;;10453955;28;20263;-68
2021/07/03 12:46:42;;;;;;;4.30;3.93;;;28.70;23.10;;;;;;10451291;28;20600;-68
2021/07/03 12:51:46;;;;;;;4.40;4.10;;;28.70;23.10;;;;;;10449906;28;20265;-68
2021/07/03 12:56:54;;;;;;;4.87;4.57;;;28.80;22.70;;;;;;10457026;28;20251;-68
2021/07/03 13:01:57;;;;;;;4.50;4.10;;;28.80;21.90;;;;;;10451291;28;20232;-68
2021/07/03 13:07:04;;;;;;;4.20;3.90;;;28.90;22.90;;;;;;10448742;28;20233;-68
2021/07/03 13:12:08;;;;;;;4.27;3.97;;;28.90;22.20;;;;;;10452160;28;20229;-68
2021/07/03 13:17:11;;;;;;;3.77;3.47;;;28.90;22.30;;;;;;10452469;28;20241;-67
2021/07/03 13:22:15;;;;;;;4.00;3.70;;;29.00;21.90;;;;;;10450507;28;20236;-67
2021/07/03 13:27:19;;;;;;;3.60;3.40;;;28.90;20.50;;;;;;10459368;28;20224;-68
2021/07/03 13:32:22;;;;;;;3.60;3.30;;;29.00;21.40;;;;;;10443206;28;20241;-68
2021/07/03 13:37:26;;;;;;;4.10;3.70;;;29.10;21.10;;;;;;10454299;28;20254;-68
2021/07/03 13:42:29;;;;;;;3.50;3.30;;;29.10;20.70;;;;;;10452083;28;20231;-68
2021/07/03 13:47:33;;;;;;;3.60;3.30;;;29.10;20.90;;;;;;10455871;28;20276;-68
2021/07/03 13:52:38;;;;;;;3.30;3.10;;;29.20;20.70;;;;;;10448594;28;20233;-68
2021/07/03 13:57:41;;;;;;;3.50;3.30;;;29.20;20.70;;;;;;10453540;28;20747;-68
2021/07/03 14:02:45;;;;;;;3.53;3.33;;;29.20;20.70;;;;;;10450185;28;20240;-68
2021/07/03 14:07:49;;;;;;;3.70;3.50;;;29.20;20.70;;;;;;10450524;28;20237;-68
2021/07/03 14:12:52;;;;;;;3.30;3.10;;;29.10;20.60;;;;;;10445362;28;20235;-68
2021/07/03 14:17:56;;;;;;;3.93;3.50;;;29.10;20.70;;;;;;10447664;28;20229;-68
2021/07/03 14:23:01;;;;;;;3.73;3.43;;;29.20;20.70;;;;;;10445752;28;20229;-68
2021/07/03 14:28:04;;;;;;;3.27;3.07;;;29.20;20.00;;;;;;10447242;28;20311;-68
2021/07/03 14:33:07;;;;;;;3.30;3.10;;;29.10;20.10;;;;;;10450745;28;20233;-68
2021/07/03 14:38:13;;;;;;;3.30;3.10;;;29.10;20.20;;;;;;10447372;28;20235;-68
2021/07/03 14:43:17;;;;;;;3.70;3.40;;;29.10;19.80;;;;;;10453237;28;20239;-68
2021/07/03 14:48:20;;;;;;;3.57;3.27;;;29.20;20.40;;;;;;10449312;28;20945;-68
2021/07/03 14:53:24;;;;;;;3.27;3.07;;;29.30;20.50;;;;;;10445328;28;20596;-68
2021/07/03 14:58:27;;;;;;;3.50;3.30;;;29.30;19.90;;;;;;10450936;28;20236;-68
2021/07/03 15:03:30;;;;;;;3.47;3.27;;;29.40;19.80;;;;;;10447748;28;20236;-68
2021/07/03 15:08:35;;;;;;;3.27;3.07;;;29.30;19.20;;;;;;10443749;28;20253;-68
2021/07/03 15:13:39;;;;;;;3.87;3.57;;;29.30;18.70;;;;;;10461234;28;20241;-68
2021/07/03 15:18:42;;;;;;;3.73;3.53;;;29.40;19.40;;;;;;10451403;28;20720;-68
2021/07/03 15:23:46;;;;;;;3.67;3.47;;;29.40;19.40;;;;;;10458560;28;20232;-67
2021/07/03 15:28:50;;;;;;;3.60;3.40;;;29.50;18.60;;;;;;10455820;28;20236;-68
2021/07/03 15:33:53;;;;;;;2.73;2.63;;;29.50;18.80;;;;;;10445697;28;20609;-68
2021/07/03 15:38:58;;;;;;;3.50;3.30;;;29.60;19.00;;;;;;10458936;28;20235;-68
2021/07/03 15:44:01;;;;;;;3.43;3.23;;;29.60;18.90;;;;;;10458192;28;20613;-68
2021/07/03 15:49:04;;;;;;;3.50;3.30;;;29.60;19.80;;;;;;10457100;28;20251;-68
2021/07/03 15:54:09;;;;;;;3.63;3.33;;;29.60;19.10;;;;;;10459562;28;20233;-68
2021/07/03 15:59:13;;;;;;;3.60;3.40;;;29.60;18.90;;;;;;10453715;28;20229;-68
2021/07/03 16:04:16;;;;;;;4.07;3.70;;;29.50;18.90;;;;;;10445957;28;20682;-67
2021/07/03 16:09:20;;;;;;;3.47;3.27;;;29.40;18.90;;;;;;10463217;28;20294;-68
2021/07/03 16:14:24;;;;;;;3.77;3.57;;;29.40;19.00;;;;;;10449872;28;20264;-68
2021/07/03 16:19:27;;;;;;;4.10;3.80;;;29.30;19.10;;;;;;10451155;28;20237;-68
2021/07/03 16:24:31;;;;;;;4.03;3.73;;;29.30;19.10;;;;;;10456399;28;20231;-68
2021/07/03 16:29:35;;;;;;;3.60;3.40;;;29.30;18.80;;;;;;10452646;28;20283;-67
2021/07/03 16:34:46;;;;;;;3.90;3.60;;;29.20;19.20;;;;;;10454637;28;20337;-68
2021/07/03 16:39:50;;;;;;;3.73;3.43;;;29.20;19.20;;;;;;10453120;28;20276;-68
2021/07/03 16:44:53;;;;;;;3.67;3.40;;;29.20;18.80;;;;;;10452053;28;20225;-68
2021/07/03 16:49:56;;;;;;;9.60;8.90;;;29.30;19.20;;;;;;10450544;28;20221;-68
2021/07/03 16:55:01;;;;;;;4.87;4.57;;;29.30;19.40;;;;;;10450765;28;20237;-68
2021/07/03 17:00:05;;;;;;;4.20;3.90;;;29.30;18.90;;;;;;10445350;28;20240;-68
2021/07/03 17:05:10;;;;;;;3.93;3.70;;;29.20;19.30;;;;;;10444432;28;20239;-68
2021/07/03 17:10:14;;;;;;;4.20;3.63;;;29.10;19.50;;;;;;10449801;28;20239;-68
2021/07/03 17:15:18;;;;;;;3.73;3.43;;;29.00;19.50;;;;;;10454439;28;20224;-68
2021/07/03 17:20:21;;;;;;;4.00;3.70;;;28.90;19.70;;;;;;10457346;28;20665;-68
2021/07/03 17:25:25;;;;;;;4.43;3.97;;;28.90;20.80;;;;;;10455757;28;20220;-68
2021/07/03 17:30:29;;;;;;;3.80;3.50;;;28.80;20.10;;;;;;10449671;28;20702;-68
2021/07/03 17:35:32;;;;;;;3.97;3.67;;;28.80;20.50;;;;;;10447710;28;20284;-68
2021/07/03 17:40:37;;;;;;;4.73;4.03;;;28.80;20.50;;;;;;10453606;28;20228;-68
2021/07/03 17:45:40;;;;;;;4.70;3.90;;;28.70;20.50;;;;;;10448145;28;20229;-68
2021/07/03 17:50:43;;;;;;;4.30;4.00;;;28.70;21.90;;;;;;10445957;28;20236;-68
2021/07/03 17:55:48;;;;;;;4.07;3.70;;;28.60;22.10;;;;;;10448803;28;20256;-68
2021/07/03 18:00:51;;;;;;;4.20;3.90;;;28.60;22.20;;;;;;10444732;28;20235;-68
2021/07/03 18:05:54;;;;;;;3.80;3.50;;;28.50;21.50;;;;;;10445101;28;20279;-68
2021/07/03 18:10:59;;;;;;;4.40;4.10;;;28.50;21.70;;;;;;10454401;28;20759;-68
2021/07/03 18:16:02;;;;;;;5.00;4.60;;;28.40;21.90;;;;;;10451997;28;20273;-69
2021/07/03 18:21:06;;;;;;;4.53;4.13;;;28.30;22.10;;;;;;10450670;28;20224;-68
2021/07/03 18:26:11;;;;;;;4.63;4.33;;;28.20;22.10;;;;;;10455151;28;20225;-68
2021/07/03 18:31:14;;;;;;;4.47;4.17;;;28.00;23.10;;;;;;10444336;28;20604;-68
2021/07/03 18:36:19;;;;;;;4.27;3.97;;;28.00;23.20;;;;;;10447057;28;20591;-68
2021/07/03 18:41:23;;;;;;;4.10;3.80;;;27.90;23.60;;;;;;10446554;28;20228;-68
2021/07/03 18:46:27;;;;;;;4.67;4.37;;;27.80;23.90;;;;;;10446053;28;20252;-68
2021/07/03 18:51:30;;;;;;;4.40;4.00;;;27.70;23.50;;;;;;10452088;28;20316;-68
2021/07/03 18:56:35;;;;;;;4.40;4.10;;;27.50;23.60;;;;;;10443884;28;20634;-68
2021/07/03 19:01:38;;;;;;;4.73;4.33;;;27.40;23.80;;;;;;10448390;28;20254;-68
2021/07/03 19:06:42;;;;;;;4.87;4.43;;;27.30;23.80;;;;;;10447332;28;20244;-68
2021/07/03 19:11:46;;;;;;;6.97;6.30;;;27.20;24.00;;;;;;10455607;28;20229;-68
2021/07/03 19:16:49;;;;;;;5.80;5.20;;;27.00;24.70;;;;;;10455699;28;20232;-68
2021/07/03 19:21:53;;;;;;;5.70;5.30;;;26.80;24.70;;;;;;10453247;28;20243;-68
2021/07/03 19:26:58;;;;;;;5.97;5.37;;;26.50;24.80;;;;;;10449404;28;20607;-68
2021/07/03 19:32:01;;;;;;;5.03;4.63;;;26.30;25.50;;;;;;10445082;28;20232;-68
2021/07/03 19:37:04;;;;;;;6.30;5.80;;;26.20;25.40;;;;;;10450500;28;20589;-68
2021/07/03 19:42:09;;;;;;;7.53;6.90;;;26.10;25.70;;;;;;10442759;28;20709;-68
2021/07/03 19:47:12;;;;;;;6.03;5.53;;;26.00;26.00;;;;;;10450637;28;20230;-68
2021/07/03 19:52:15;;;;;;;6.40;5.90;;;25.90;25.80;;;;;;10443223;28;20232;-68
2021/07/03 19:57:20;;;;;;;6.27;5.73;;;25.70;25.90;;;;;;10454086;28;20225;-68
2021/07/03 20:02:23;;;;;;;6.70;6.10;;;25.50;26.70;;;;;;10454861;28;20229;-68
2021/07/03 20:07:26;;;;;;;5.80;5.40;;;25.40;26.60;;;;;;10452784;28;20228;-68
2021/07/03 20:12:31;;;;;;;5.07;4.57;;;25.30;26.80;;;;;;10457302;28;20229;-68
2021/07/03 20:17:35;;;;;;;6.20;4.57;;;25.20;27.10;;;;;;10461687;28;20237;-68
2021/07/03 20:22:38;;;;;;;5.00;4.60;;;25.10;27.00;;;;;;10454856;28;20217;-68
2021/07/03 20:27:44;;;;;;;6.10;5.60;;;25.10;27.20;;;;;;10450998;28;20324;-68
2021/07/03 20:32:50;;;;;;;6.07;5.57;;;25.00;27.90;;;;;;10446226;28;20225;-68
2021/07/03 20:37:53;;;;;;;6.20;5.70;;;24.90;27.60;;;;;;10447660;28;20572;-68
2021/07/03 20:42:58;;;;;;;5.90;5.30;;;24.70;27.90;;;;;;10451079;28;20787;-68
2021/07/03 20:48:01;;;;;;;6.17;5.67;;;24.60;28.40;;;;;;10458127;28;20228;-68
2021/07/03 20:53:05;;;;;;;6.43;5.93;;;24.60;28.40;;;;;;10455601;28;20861;-68
2021/07/03 20:58:09;;;;;;;6.03;5.43;;;24.60;28.40;;;;;;10454205;28;20243;-68
2021/07/03 21:03:13;;;;;;;7.20;5.67;;;24.40;28.90;;;;;;10445929;28;20220;-68
2021/07/03 21:08:16;;;;;;;6.07;5.57;;;24.20;28.40;;;;;;10453861;28;20339;-68
2021/07/03 21:13:21;;;;;;;6.30;5.73;;;24.00;28.80;;;;;;10451772;28;20229;-68
2021/07/03 21:18:25;;;;;;;8.07;7.27;;;23.80;29.70;;;;;;10453016;28;20867;-68
2021/07/03 21:23:28;;;;;;;7.27;6.67;;;23.60;29.60;;;;;;10455306;28;20225;-68
2021/07/03 21:28:32;;;;;;;7.13;6.53;;;23.50;29.40;;;;;;10448225;28;20644;-68
2021/07/03 21:33:36;;;;;;;6.10;5.60;;;23.40;30.00;;;;;;10451502;28;20243;-68
2021/07/03 21:38:39;;;;;;;5.97;5.47;;;23.20;29.60;;;;;;10451985;28;20233;-68
2021/07/03 21:43:45;;;;;;;5.67;5.17;;;23.20;29.50;;;;;;10447361;28;20594;-68
2021/07/03 21:48:52;;;;;;;5.53;5.07;;;23.20;30.00;;;;;;10452610;28;20764;-68
2021/07/03 21:53:56;;;;;;;5.87;5.37;;;23.20;29.70;;;;;;10458499;28;20237;-68
2021/07/03 21:59:16;;;;;;;5.27;4.87;;;23.30;29.90;;;;;;10453780;28;20279;-68
2021/07/03 22:04:20;;;;;;;5.10;4.70;;;23.40;30.30;;;;;;10448034;28;20604;-68
2021/07/03 22:09:26;;;;;;;5.00;4.60;;;23.40;30.00;;;;;;10450857;28;20229;-68
2021/07/03 22:14:31;;;;;;;4.90;4.50;;;23.50;30.10;;;;;;10447619;28;20715;-68
2021/07/03 22:19:34;;;;;;;4.80;4.50;;;23.50;30.70;;;;;;10447373;28;20247;-68
2021/07/03 22:24:38;;;;;;;5.70;5.10;;;23.50;30.20;;;;;;10450272;28;20225;-68
2021/07/03 22:29:42;;;;;;;4.70;4.37;;;23.50;30.40;;;;;;10452266;28;20240;-68
2021/07/03 22:34:45;;;;;;;5.57;5.07;;;23.40;31.20;;;;;;10449647;28;20233;-68
2021/07/03 22:39:49;;;;;;;4.90;4.50;;;23.30;30.80;;;;;;10451750;28;20232;-68
2021/07/03 22:44:53;;;;;;;5.10;4.60;;;23.20;31.30;;;;;;10457091;28;20235;-68
2021/07/03 22:49:56;;;;;;;5.20;4.80;;;23.10;32.00;;;;;;10447866;28;20247;-68
2021/07/03 22:55:00;;;;;;;4.90;4.50;;;23.10;31.70;;;;;;10451909;28;20229;-68
2021/07/03 23:00:07;;;;;;;4.93;4.57;;;23.00;32.00;;;;;;10446802;28;20251;-68
2021/07/03 23:05:12;;;;;;;4.77;4.47;;;22.90;33.10;;;;;;10446694;28;20228;-68
2021/07/03 23:10:18;;;;;;;5.00;4.60;;;22.90;32.50;;;;;;10449106;28;20259;-68
2021/07/03 23:15:23;;;;;;;5.23;4.83;;;22.90;33.60;;;;;;10439527;28;20600;-68
2021/07/03 23:20:27;;;;;;;5.20;4.80;;;22.80;33.80;;;;;;10447020;28;20228;-68
2021/07/03 23:25:30;;;;;;;4.93;4.53;;;22.70;33.50;;;;;;10453514;28;20231;-68
2021/07/03 23:30:37;;;;;;;5.60;5.10;;;22.60;33.30;;;;;;10443597;28;20239;-68
2021/07/03 23:35:40;;;;;;;5.17;4.77;;;22.60;34.80;;;;;;10460801;28;20608;-68
2021/07/03 23:40:43;;;;;;;4.83;4.43;;;22.40;33.90;;;;;;10450888;28;20222;-68
2021/07/03 23:45:50;;;;;;;5.37;4.97;;;22.40;34.10;;;;;;10452269;28;20236;-68
2021/07/03 23:50:54;;;;;;;5.30;4.80;;;22.30;35.10;;;;;;10456983;28;20233;-67
2021/07/03 23:55:57;;;;;;;5.07;4.67;;;22.40;34.90;;;;;;10462225;28;20237;-68
